sensor_id;sensor_type;location;lat;lon;timestamp;pressure;altitude;pressure_sealevel;temperature
55038;BMP280;40937;53.594;10.034;2023-11-22T00:01:04;102928.09;;;4.67
55038;BMP280;40937;53.594;10.034;2023-11-22T00:03:31;102936.06;;;4.66
55038;BMP280;40937;53.594;10.034;2023-11-22T00:05:59;102932.47;;;4.67
55038;BMP280;40937;53.594;10.034;2023-11-22T00:08:27;102939.13;;;4.30
55038;BMP280;40937;53.594;10.034;2023-11-22T00:10:55;102947.63;;;4.01
55038;BMP280;40937;53.594;10.034;2023-11-22T00:13:23;102944.84;;;3.93
55038;BMP280;40937;53.594;10.034;2023-11-22T00:15:51;102938.72;;;3.83
55038;BMP280;40937;53.594;10.034;2023-11-22T00:18:18;102930.72;;;3.75
55038;BMP280;40937;53.594;10.034;2023-11-22T00:20:45;102930.47;;;3.99
55038;BMP280;40937;53.594;10.034;2023-11-22T00:23:13;102927.50;;;3.92
55038;BMP280;40937;53.594;10.034;2023-11-22T00:25:40;102921.41;;;3.82
55038;BMP280;40937;53.594;10.034;2023-11-22T00:28:07;102928.16;;;3.63
55038;BMP280;40937;53.594;10.034;2023-11-22T00:30:38;102923.97;;;3.51
55038;BMP280;40937;53.594;10.034;2023-11-22T00:33:05;102929.69;;;3.45
55038;BMP280;40937;53.594;10.034;2023-11-22T00:35:32;102928.03;;;3.44
55038;BMP280;40937;53.594;10.034;2023-11-22T00:38:01;102935.16;;;3.42
55038;BMP280;40937;53.594;10.034;2023-11-22T00:40:28;102930.44;;;3.36
55038;BMP280;40937;53.594;10.034;2023-11-22T00:42:55;102935.75;;;3.34
55038;BMP280;40937;53.594;10.034;2023-11-22T00:45:22;102949.69;;;3.23
55038;BMP280;40937;53.594;10.034;2023-11-22T00:47:51;102966.53;;;3.19
55038;BMP280;40937;53.594;10.034;2023-11-22T00:50:18;102973.19;;;3.23
55038;BMP280;40937;53.594;10.034;2023-11-22T00:52:47;102975.56;;;3.15
55038;BMP280;40937;53.594;10.034;2023-11-22T00:55:15;102980.44;;;3.08
55038;BMP280;40937;53.594;10.034;2023-11-22T00:57:43;102991.00;;;3.07
55038;BMP280;40937;53.594;10.034;2023-11-22T01:00:10;102995.72;;;3.02
55038;BMP280;40937;53.594;10.034;2023-11-22T01:02:39;103001.31;;;2.97
55038;BMP280;40937;53.594;10.034;2023-11-22T01:05:08;103013.53;;;2.97
55038;BMP280;40937;53.594;10.034;2023-11-22T01:07:37;103006.91;;;2.92
55038;BMP280;40937;53.594;10.034;2023-11-22T01:10:05;103013.38;;;3.21
55038;BMP280;40937;53.594;10.034;2023-11-22T01:12:32;103010.25;;;3.38
55038;BMP280;40937;53.594;10.034;2023-11-22T01:15:00;103007.03;;;3.35
55038;BMP280;40937;53.594;10.034;2023-11-22T01:17:27;102995.19;;;3.31
55038;BMP280;40937;53.594;10.034;2023-11-22T01:19:54;102990.25;;;3.60
55038;BMP280;40937;53.594;10.034;2023-11-22T01:22:22;102993.25;;;3.44
55038;BMP280;40937;53.594;10.034;2023-11-22T01:24:49;102979.53;;;3.31
55038;BMP280;40937;53.594;10.034;2023-11-22T01:27:18;102987.16;;;3.55
55038;BMP280;40937;53.594;10.034;2023-11-22T01:29:45;102988.31;;;3.29
55038;BMP280;40937;53.594;10.034;2023-11-22T01:32:12;102990.81;;;3.31
55038;BMP280;40937;53.594;10.034;2023-11-22T01:34:42;102991.75;;;3.41
55038;BMP280;40937;53.594;10.034;2023-11-22T01:37:09;102994.31;;;3.53
55038;BMP280;40937;53.594;10.034;2023-11-22T01:39:40;102984.91;;;3.61
55038;BMP280;40937;53.594;10.034;2023-11-22T01:42:07;102991.13;;;3.49
55038;BMP280;40937;53.594;10.034;2023-11-22T01:44:35;102986.63;;;3.51
55038;BMP280;40937;53.594;10.034;2023-11-22T01:47:04;102998.19;;;3.58
55038;BMP280;40937;53.594;10.034;2023-11-22T01:49:31;103002.75;;;3.45
55038;BMP280;40937;53.594;10.034;2023-11-22T01:51:59;103007.97;;;3.45
55038;BMP280;40937;53.594;10.034;2023-11-22T01:54:28;103006.03;;;3.58
55038;BMP280;40937;53.594;10.034;2023-11-22T01:56:57;103012.75;;;3.61
55038;BMP280;40937;53.594;10.034;2023-11-22T01:59:25;102999.22;;;3.46
55038;BMP280;40937;53.594;10.034;2023-11-22T02:01:53;103001.16;;;3.21
55038;BMP280;40937;53.594;10.034;2023-11-22T02:04:20;102987.53;;;3.06
55038;BMP280;40937;53.594;10.034;2023-11-22T02:06:48;102991.25;;;2.92
55038;BMP280;40937;53.594;10.034;2023-11-22T02:09:16;102997.06;;;2.85
55038;BMP280;40937;53.594;10.034;2023-11-22T02:11:44;102996.94;;;2.86
55038;BMP280;40937;53.594;10.034;2023-11-22T02:14:15;102998.00;;;2.72
55038;BMP280;40937;53.594;10.034;2023-11-22T02:16:42;102992.00;;;2.61
55038;BMP280;40937;53.594;10.034;2023-11-22T02:19:14;103000.75;;;2.60
55038;BMP280;40937;53.594;10.034;2023-11-22T02:21:41;103004.09;;;2.62
55038;BMP280;40937;53.594;10.034;2023-11-22T02:24:11;103015.19;;;2.52
55038;BMP280;40937;53.594;10.034;2023-11-22T02:26:43;103015.88;;;2.43
55038;BMP280;40937;53.594;10.034;2023-11-22T02:29:10;103033.63;;;2.38
55038;BMP280;40937;53.594;10.034;2023-11-22T02:31:39;103039.56;;;2.40
55038;BMP280;40937;53.594;10.034;2023-11-22T02:34:06;103039.91;;;2.35
55038;BMP280;40937;53.594;10.034;2023-11-22T02:36:33;103043.81;;;2.41
55038;BMP280;40937;53.594;10.034;2023-11-22T02:39:01;103053.03;;;2.34
55038;BMP280;40937;53.594;10.034;2023-11-22T02:41:29;103046.16;;;2.33
55038;BMP280;40937;53.594;10.034;2023-11-22T02:43:57;103045.50;;;2.65
55038;BMP280;40937;53.594;10.034;2023-11-22T02:46:24;103049.53;;;2.80
55038;BMP280;40937;53.594;10.034;2023-11-22T02:48:52;103047.44;;;2.97
55038;BMP280;40937;53.594;10.034;2023-11-22T02:51:20;103056.88;;;2.52
55038;BMP280;40937;53.594;10.034;2023-11-22T02:53:48;103055.91;;;2.42
55038;BMP280;40937;53.594;10.034;2023-11-22T02:56:15;103052.06;;;2.35
55038;BMP280;40937;53.594;10.034;2023-11-22T02:58:44;103066.03;;;2.23
55038;BMP280;40937;53.594;10.034;2023-11-22T03:01:11;103075.47;;;2.12
55038;BMP280;40937;53.594;10.034;2023-11-22T03:03:39;103071.69;;;2.16
55038;BMP280;40937;53.594;10.034;2023-11-22T03:06:06;103071.91;;;2.13
55038;BMP280;40937;53.594;10.034;2023-11-22T03:08:34;103078.47;;;2.19
55038;BMP280;40937;53.594;10.034;2023-11-22T03:11:01;103077.19;;;2.36
55038;BMP280;40937;53.594;10.034;2023-11-22T03:13:29;103071.25;;;2.23
55038;BMP280;40937;53.594;10.034;2023-11-22T03:15:58;103069.31;;;2.13
55038;BMP280;40937;53.594;10.034;2023-11-22T03:18:26;103073.28;;;2.30
55038;BMP280;40937;53.594;10.034;2023-11-22T03:20:54;103074.06;;;2.20
55038;BMP280;40937;53.594;10.034;2023-11-22T03:23:22;103078.34;;;2.21
55038;BMP280;40937;53.594;10.034;2023-11-22T03:25:51;103084.00;;;2.14
55038;BMP280;40937;53.594;10.034;2023-11-22T03:28:19;103081.63;;;2.11
55038;BMP280;40937;53.594;10.034;2023-11-22T03:30:48;103084.00;;;2.14
55038;BMP280;40937;53.594;10.034;2023-11-22T03:33:17;103084.81;;;2.15
55038;BMP280;40937;53.594;10.034;2023-11-22T03:35:44;103094.41;;;2.14
55038;BMP280;40937;53.594;10.034;2023-11-22T03:38:11;103091.69;;;2.16
55038;BMP280;40937;53.594;10.034;2023-11-22T03:40:38;103089.50;;;2.34
55038;BMP280;40937;53.594;10.034;2023-11-22T03:43:06;103095.66;;;2.22
55038;BMP280;40937;53.594;10.034;2023-11-22T03:45:36;103103.53;;;2.09
55038;BMP280;40937;53.594;10.034;2023-11-22T03:48:03;103097.69;;;2.05
55038;BMP280;40937;53.594;10.034;2023-11-22T03:50:32;103102.19;;;2.03
55038;BMP280;40937;53.594;10.034;2023-11-22T03:52:59;103109.28;;;2.01
55038;BMP280;40937;53.594;10.034;2023-11-22T03:55:26;103098.22;;;1.97
55038;BMP280;40937;53.594;10.034;2023-11-22T03:57:53;103113.03;;;1.97
55038;BMP280;40937;53.594;10.034;2023-11-22T04:00:21;103116.56;;;1.96
55038;BMP280;40937;53.594;10.034;2023-11-22T04:02:49;103113.25;;;1.94
55038;BMP280;40937;53.594;10.034;2023-11-22T04:05:17;103112.44;;;1.93
55038;BMP280;40937;53.594;10.034;2023-11-22T04:07:47;103120.81;;;1.86
55038;BMP280;40937;53.594;10.034;2023-11-22T04:10:15;103118.00;;;1.89
55038;BMP280;40937;53.594;10.034;2023-11-22T04:12:42;103115.38;;;1.89
55038;BMP280;40937;53.594;10.034;2023-11-22T04:15:10;103112.78;;;1.89
55038;BMP280;40937;53.594;10.034;2023-11-22T04:17:37;103113.44;;;1.79
55038;BMP280;40937;53.594;10.034;2023-11-22T04:20:05;103112.91;;;1.74
55038;BMP280;40937;53.594;10.034;2023-11-22T04:22:35;103105.06;;;2.11
55038;BMP280;40937;53.594;10.034;2023-11-22T04:25:04;103100.50;;;2.02
55038;BMP280;40937;53.594;10.034;2023-11-22T04:27:31;103097.63;;;1.94
55038;BMP280;40937;53.594;10.034;2023-11-22T04:29:59;103110.09;;;2.02
55038;BMP280;40937;53.594;10.034;2023-11-22T04:32:26;103098.31;;;1.85
55038;BMP280;40937;53.594;10.034;2023-11-22T04:34:53;103088.34;;;1.78
55038;BMP280;40937;53.594;10.034;2023-11-22T04:37:20;103093.97;;;1.72
55038;BMP280;40937;53.594;10.034;2023-11-22T04:39:50;103097.50;;;1.71
55038;BMP280;40937;53.594;10.034;2023-11-22T04:42:19;103094.91;;;1.71
55038;BMP280;40937;53.594;10.034;2023-11-22T04:44:47;103093.09;;;1.85
55038;BMP280;40937;53.594;10.034;2023-11-22T04:47:14;103095.72;;;1.96
55038;BMP280;40937;53.594;10.034;2023-11-22T04:49:41;103103.53;;;1.85
55038;BMP280;40937;53.594;10.034;2023-11-22T04:52:09;103109.94;;;1.92
55038;BMP280;40937;53.594;10.034;2023-11-22T04:54:36;103109.06;;;2.04
55038;BMP280;40937;53.594;10.034;2023-11-22T04:57:03;103098.53;;;1.81
55038;BMP280;40937;53.594;10.034;2023-11-22T04:59:32;103107.25;;;1.80
55038;BMP280;40937;53.594;10.034;2023-11-22T05:02:00;103115.19;;;1.79
55038;BMP280;40937;53.594;10.034;2023-11-22T05:04:27;103111.69;;;1.67
55038;BMP280;40937;53.594;10.034;2023-11-22T05:06:54;103095.66;;;1.73
55038;BMP280;40937;53.594;10.034;2023-11-22T05:09:21;103101.28;;;1.67
55038;BMP280;40937;53.594;10.034;2023-11-22T05:11:48;103100.97;;;1.59
55038;BMP280;40937;53.594;10.034;2023-11-22T05:14:15;103105.25;;;1.60
55038;BMP280;40937;53.594;10.034;2023-11-22T05:16:44;103109.84;;;1.56
55038;BMP280;40937;53.594;10.034;2023-11-22T05:19:11;103116.19;;;1.52
55038;BMP280;40937;53.594;10.034;2023-11-22T05:21:38;103119.06;;;1.73
55038;BMP280;40937;53.594;10.034;2023-11-22T05:24:06;103117.91;;;1.77
55038;BMP280;40937;53.594;10.034;2023-11-22T05:26:34;103120.44;;;1.66
55038;BMP280;40937;53.594;10.034;2023-11-22T05:29:01;103132.53;;;1.54
55038;BMP280;40937;53.594;10.034;2023-11-22T05:31:30;103139.91;;;1.48
55038;BMP280;40937;53.594;10.034;2023-11-22T05:33:59;103141.88;;;1.57
55038;BMP280;40937;53.594;10.034;2023-11-22T05:36:26;103159.16;;;1.58
55038;BMP280;40937;53.594;10.034;2023-11-22T05:38:53;103168.31;;;1.51
55038;BMP280;40937;53.594;10.034;2023-11-22T05:41:21;103156.47;;;1.47
55038;BMP280;40937;53.594;10.034;2023-11-22T05:43:49;103158.13;;;1.48
55038;BMP280;40937;53.594;10.034;2023-11-22T05:46:16;103147.91;;;1.44
55038;BMP280;40937;53.594;10.034;2023-11-22T05:48:47;103145.13;;;1.48
55038;BMP280;40937;53.594;10.034;2023-11-22T05:51:16;103143.69;;;1.43
55038;BMP280;40937;53.594;10.034;2023-11-22T05:53:44;103135.84;;;1.56
55038;BMP280;40937;53.594;10.034;2023-11-22T05:56:11;103134.91;;;1.70
55038;BMP280;40937;53.594;10.034;2023-11-22T05:58:39;103139.75;;;1.88
55038;BMP280;40937;53.594;10.034;2023-11-22T06:01:06;103133.63;;;2.00
55038;BMP280;40937;53.594;10.034;2023-11-22T06:03:34;103133.41;;;2.03
55038;BMP280;40937;53.594;10.034;2023-11-22T06:06:02;103139.13;;;1.71
55038;BMP280;40937;53.594;10.034;2023-11-22T06:08:31;103134.28;;;1.91
55038;BMP280;40937;53.594;10.034;2023-11-22T06:10:58;103127.84;;;1.96
55038;BMP280;40937;53.594;10.034;2023-11-22T06:13:26;103114.03;;;2.07
55038;BMP280;40937;53.594;10.034;2023-11-22T06:15:53;103116.13;;;2.02
55038;BMP280;40937;53.594;10.034;2023-11-22T06:18:20;103123.22;;;2.00
55038;BMP280;40937;53.594;10.034;2023-11-22T06:20:47;103114.75;;;2.09
55038;BMP280;40937;53.594;10.034;2023-11-22T06:23:15;103106.78;;;2.24
55038;BMP280;40937;53.594;10.034;2023-11-22T06:25:43;103111.94;;;2.12
55038;BMP280;40937;53.594;10.034;2023-11-22T06:28:11;103114.06;;;1.94
55038;BMP280;40937;53.594;10.034;2023-11-22T06:30:41;103127.88;;;1.84
55038;BMP280;40937;53.594;10.034;2023-11-22T06:33:09;103136.63;;;1.83
55038;BMP280;40937;53.594;10.034;2023-11-22T06:35:36;103129.25;;;1.76
55038;BMP280;40937;53.594;10.034;2023-11-22T06:38:03;103135.41;;;1.75
55038;BMP280;40937;53.594;10.034;2023-11-22T06:40:31;103125.19;;;1.72
55038;BMP280;40937;53.594;10.034;2023-11-22T06:42:59;103125.00;;;1.75
55038;BMP280;40937;53.594;10.034;2023-11-22T06:45:26;103110.91;;;2.02
55038;BMP280;40937;53.594;10.034;2023-11-22T06:47:54;103120.59;;;1.89
55038;BMP280;40937;53.594;10.034;2023-11-22T06:50:21;103118.41;;;1.83
55038;BMP280;40937;53.594;10.034;2023-11-22T06:52:48;103123.31;;;1.74
55038;BMP280;40937;53.594;10.034;2023-11-22T06:55:16;103126.97;;;1.72
55038;BMP280;40937;53.594;10.034;2023-11-22T06:57:43;103130.28;;;1.74
55038;BMP280;40937;53.594;10.034;2023-11-22T07:00:15;103137.06;;;1.76
55038;BMP280;40937;53.594;10.034;2023-11-22T07:02:43;103117.06;;;1.77
55038;BMP280;40937;53.594;10.034;2023-11-22T07:05:11;103108.66;;;1.73
55038;BMP280;40937;53.594;10.034;2023-11-22T07:07:38;103100.00;;;1.73
55038;BMP280;40937;53.594;10.034;2023-11-22T07:10:06;103110.28;;;1.87
55038;BMP280;40937;53.594;10.034;2023-11-22T07:12:33;103110.47;;;2.08
55038;BMP280;40937;53.594;10.034;2023-11-22T07:15:01;103120.69;;;2.11
55038;BMP280;40937;53.594;10.034;2023-11-22T07:17:30;103130.53;;;1.95
55038;BMP280;40937;53.594;10.034;2023-11-22T07:19:59;103125.72;;;2.02
55038;BMP280;40937;53.594;10.034;2023-11-22T07:22:26;103126.50;;;2.15
55038;BMP280;40937;53.594;10.034;2023-11-22T07:24:54;103135.88;;;2.17
55038;BMP280;40937;53.594;10.034;2023-11-22T07:27:25;103141.06;;;2.42
55038;BMP280;40937;53.594;10.034;2023-11-22T07:29:52;103127.47;;;2.49
55038;BMP280;40937;53.594;10.034;2023-11-22T07:32:20;103142.00;;;2.41
55038;BMP280;40937;53.594;10.034;2023-11-22T07:34:48;103152.19;;;2.44
55038;BMP280;40937;53.594;10.034;2023-11-22T07:37:16;103137.38;;;2.44
55038;BMP280;40937;53.594;10.034;2023-11-22T07:39:44;103146.03;;;2.45
55038;BMP280;40937;53.594;10.034;2023-11-22T07:42:11;103157.72;;;2.28
55038;BMP280;40937;53.594;10.034;2023-11-22T07:44:38;103163.81;;;2.15
55038;BMP280;40937;53.594;10.034;2023-11-22T07:47:06;103162.84;;;2.16
55038;BMP280;40937;53.594;10.034;2023-11-22T07:49:35;103172.53;;;2.14
55038;BMP280;40937;53.594;10.034;2023-11-22T07:52:06;103185.34;;;2.17
55038;BMP280;40937;53.594;10.034;2023-11-22T07:54:33;103187.94;;;2.17
55038;BMP280;40937;53.594;10.034;2023-11-22T07:57:01;103199.81;;;2.22
55038;BMP280;40937;53.594;10.034;2023-11-22T07:59:28;103209.81;;;2.28
55038;BMP280;40937;53.594;10.034;2023-11-22T08:01:56;103196.69;;;2.41
55038;BMP280;40937;53.594;10.034;2023-11-22T08:04:23;103197.16;;;2.59
55038;BMP280;40937;53.594;10.034;2023-11-22T08:06:50;103189.34;;;2.70
55038;BMP280;40937;53.594;10.034;2023-11-22T08:09:24;103194.13;;;2.76
55038;BMP280;40937;53.594;10.034;2023-11-22T08:11:51;103187.13;;;2.77
55038;BMP280;40937;53.594;10.034;2023-11-22T08:14:18;103190.44;;;2.79
55038;BMP280;40937;53.594;10.034;2023-11-22T08:16:46;103177.81;;;2.85
55038;BMP280;40937;53.594;10.034;2023-11-22T08:19:15;103167.25;;;2.87
55038;BMP280;40937;53.594;10.034;2023-11-22T08:21:42;103171.91;;;2.95
55038;BMP280;40937;53.594;10.034;2023-11-22T08:24:09;103174.91;;;2.77
55038;BMP280;40937;53.594;10.034;2023-11-22T08:26:40;103179.78;;;2.82
55038;BMP280;40937;53.594;10.034;2023-11-22T08:29:07;103166.00;;;2.68
55038;BMP280;40937;53.594;10.034;2023-11-22T08:31:36;103156.19;;;2.83
55038;BMP280;40937;53.594;10.034;2023-11-22T08:34:03;103140.38;;;2.98
55038;BMP280;40937;53.594;10.034;2023-11-22T08:36:32;103152.06;;;3.03
55038;BMP280;40937;53.594;10.034;2023-11-22T08:39:00;103164.78;;;3.08
55038;BMP280;40937;53.594;10.034;2023-11-22T08:41:28;103178.78;;;3.07
55038;BMP280;40937;53.594;10.034;2023-11-22T08:43:57;103178.06;;;3.16
55038;BMP280;40937;53.594;10.034;2023-11-22T08:46:24;103181.88;;;3.23
55038;BMP280;40937;53.594;10.034;2023-11-22T08:48:52;103178.06;;;3.27
55038;BMP280;40937;53.594;10.034;2023-11-22T08:51:19;103163.13;;;3.29
55038;BMP280;40937;53.594;10.034;2023-11-22T08:53:47;103163.59;;;3.35
55038;BMP280;40937;53.594;10.034;2023-11-22T08:56:14;103159.00;;;3.38
55038;BMP280;40937;53.594;10.034;2023-11-22T08:58:42;103158.88;;;3.40
55038;BMP280;40937;53.594;10.034;2023-11-22T09:01:11;103161.94;;;3.45
55038;BMP280;40937;53.594;10.034;2023-11-22T09:03:40;103166.69;;;3.40
55038;BMP280;40937;53.594;10.034;2023-11-22T09:06:09;103174.88;;;3.35
55038;BMP280;40937;53.594;10.034;2023-11-22T09:08:37;103166.94;;;3.37
55038;BMP280;40937;53.594;10.034;2023-11-22T09:11:04;103158.88;;;3.51
55038;BMP280;40937;53.594;10.034;2023-11-22T09:13:33;103149.84;;;3.55
55038;BMP280;40937;53.594;10.034;2023-11-22T09:16:00;103148.75;;;3.58
55038;BMP280;40937;53.594;10.034;2023-11-22T09:18:32;103144.13;;;3.61
55038;BMP280;40937;53.594;10.034;2023-11-22T09:20:59;103150.88;;;3.64
55038;BMP280;40937;53.594;10.034;2023-11-22T09:23:26;103154.09;;;3.68
55038;BMP280;40937;53.594;10.034;2023-11-22T09:25:54;103148.88;;;3.68
55038;BMP280;40937;53.594;10.034;2023-11-22T09:28:21;103153.59;;;3.74
55038;BMP280;40937;53.594;10.034;2023-11-22T09:30:48;103163.53;;;3.80
55038;BMP280;40937;53.594;10.034;2023-11-22T09:33:17;103171.84;;;3.85
55038;BMP280;40937;53.594;10.034;2023-11-22T09:35:46;103179.81;;;3.83
55038;BMP280;40937;53.594;10.034;2023-11-22T09:38:15;103191.66;;;3.88
55038;BMP280;40937;53.594;10.034;2023-11-22T09:40:43;103189.66;;;3.91
55038;BMP280;40937;53.594;10.034;2023-11-22T09:43:12;103187.63;;;3.95
55038;BMP280;40937;53.594;10.034;2023-11-22T09:45:41;103183.22;;;3.95
55038;BMP280;40937;53.594;10.034;2023-11-22T09:48:14;103193.66;;;3.95
55038;BMP280;40937;53.594;10.034;2023-11-22T09:50:43;103196.16;;;3.97
55038;BMP280;40937;53.594;10.034;2023-11-22T09:53:22;103201.72;;;4.03
55038;BMP280;40937;53.594;10.034;2023-11-22T09:55:52;103197.91;;;4.08
55038;BMP280;40937;53.594;10.034;2023-11-22T09:58:20;103201.94;;;4.12
55038;BMP280;40937;53.594;10.034;2023-11-22T10:00:48;103184.47;;;4.12
55038;BMP280;40937;53.594;10.034;2023-11-22T10:03:16;103186.97;;;4.14
55038;BMP280;40937;53.594;10.034;2023-11-22T10:05:44;103188.28;;;4.19
55038;BMP280;40937;53.594;10.034;2023-11-22T10:08:11;103189.63;;;4.24
55038;BMP280;40937;53.594;10.034;2023-11-22T10:10:40;103187.16;;;4.22
55038;BMP280;40937;53.594;10.034;2023-11-22T10:13:10;103173.59;;;4.28
55038;BMP280;40937;53.594;10.034;2023-11-22T10:15:38;103171.47;;;4.33
55038;BMP280;40937;53.594;10.034;2023-11-22T10:18:05;103176.69;;;4.33
55038;BMP280;40937;53.594;10.034;2023-11-22T10:20:37;103168.84;;;4.33
55038;BMP280;40937;53.594;10.034;2023-11-22T10:23:08;103160.75;;;4.36
55038;BMP280;40937;53.594;10.034;2023-11-22T10:25:36;103153.16;;;4.33
55038;BMP280;40937;53.594;10.034;2023-11-22T10:28:06;103153.16;;;4.33
55038;BMP280;40937;53.594;10.034;2023-11-22T10:30:33;103148.63;;;4.35
55038;BMP280;40937;53.594;10.034;2023-11-22T10:33:00;103154.19;;;4.42
55038;BMP280;40937;53.594;10.034;2023-11-22T10:35:27;103140.72;;;4.47
55038;BMP280;40937;53.594;10.034;2023-11-22T10:37:55;103127.38;;;4.50
55038;BMP280;40937;53.594;10.034;2023-11-22T10:40:22;103119.53;;;4.50
55038;BMP280;40937;53.594;10.034;2023-11-22T10:42:50;103115.03;;;4.52
55038;BMP280;40937;53.594;10.034;2023-11-22T10:45:23;103113.81;;;4.56
55038;BMP280;40937;53.594;10.034;2023-11-22T10:47:52;103093.50;;;4.60
55038;BMP280;40937;53.594;10.034;2023-11-22T10:50:21;103092.66;;;4.59
55038;BMP280;40937;53.594;10.034;2023-11-22T10:52:52;103085.53;;;4.61
55038;BMP280;40937;53.594;10.034;2023-11-22T10:55:27;103080.97;;;4.63
55038;BMP280;40937;53.594;10.034;2023-11-22T10:57:54;103071.19;;;4.65
55038;BMP280;40937;53.594;10.034;2023-11-22T11:00:24;103070.94;;;4.68
55038;BMP280;40937;53.594;10.034;2023-11-22T11:02:58;103061.88;;;4.72
55038;BMP280;40937;53.594;10.034;2023-11-22T11:05:30;103054.16;;;4.71
55038;BMP280;40937;53.594;10.034;2023-11-22T11:08:01;103058.03;;;4.76
55038;BMP280;40937;53.594;10.034;2023-11-22T11:10:32;103051.16;;;4.75
55038;BMP280;40937;53.594;10.034;2023-11-22T11:13:00;103045.69;;;4.79
55038;BMP280;40937;53.594;10.034;2023-11-22T11:15:29;103040.16;;;4.82
55038;BMP280;40937;53.594;10.034;2023-11-22T11:17:57;103025.41;;;4.81
55038;BMP280;40937;53.594;10.034;2023-11-22T11:20:25;103010.69;;;4.80
55038;BMP280;40937;53.594;10.034;2023-11-22T11:22:55;103009.59;;;4.82
55038;BMP280;40937;53.594;10.034;2023-11-22T11:25:22;102996.13;;;4.77
55038;BMP280;40937;53.594;10.034;2023-11-22T11:27:56;102981.13;;;4.79
55038;BMP280;40937;53.594;10.034;2023-11-22T11:30:45;102976.28;;;4.84
55038;BMP280;40937;53.594;10.034;2023-11-22T11:33:15;102975.19;;;4.87
55038;BMP280;40937;53.594;10.034;2023-11-22T11:35:43;102962.81;;;4.89
55038;BMP280;40937;53.594;10.034;2023-11-22T11:38:15;102967.78;;;4.92
55038;BMP280;40937;53.594;10.034;2023-11-22T11:40:45;102966.13;;;4.91
55038;BMP280;40937;53.594;10.034;2023-11-22T11:43:13;102953.75;;;4.93
55038;BMP280;40937;53.594;10.034;2023-11-22T11:45:43;102935.84;;;4.98
55038;BMP280;40937;53.594;10.034;2023-11-22T11:48:13;102918.22;;;5.00
55038;BMP280;40937;53.594;10.034;2023-11-22T11:50:41;102914.63;;;5.01
55038;BMP280;40937;53.594;10.034;2023-11-22T11:53:08;102911.06;;;5.02
55038;BMP280;40937;53.594;10.034;2023-11-22T11:55:36;102915.19;;;5.05
55038;BMP280;40937;53.594;10.034;2023-11-22T11:58:07;102902.66;;;5.08
55038;BMP280;40937;53.594;10.034;2023-11-22T12:00:36;102892.06;;;5.10
55038;BMP280;40937;53.594;10.034;2023-11-22T12:03:08;102871.13;;;5.10
55038;BMP280;40937;53.594;10.034;2023-11-22T12:05:36;102859.84;;;5.09
55038;BMP280;40937;53.594;10.034;2023-11-22T12:08:04;102877.91;;;5.12
55038;BMP280;40937;53.594;10.034;2023-11-22T12:10:31;102889.84;;;5.15
55038;BMP280;40937;53.594;10.034;2023-11-22T12:12:58;102915.22;;;5.14
55038;BMP280;40937;53.594;10.034;2023-11-22T12:15:26;102949.59;;;5.20
55038;BMP280;40937;53.594;10.034;2023-11-22T12:17:55;102954.03;;;5.19
55038;BMP280;40937;53.594;10.034;2023-11-22T12:20:24;102916.88;;;5.16
55038;BMP280;40937;53.594;10.034;2023-11-22T12:22:52;102911.91;;;5.12
55038;BMP280;40937;53.594;10.034;2023-11-22T12:25:19;102916.16;;;5.13
55038;BMP280;40937;53.594;10.034;2023-11-22T12:27:47;102912.59;;;5.14
55038;BMP280;40937;53.594;10.034;2023-11-22T12:30:31;102914.91;;;5.18
55038;BMP280;40937;53.594;10.034;2023-11-22T12:33:02;102924.56;;;5.17
55038;BMP280;40937;53.594;10.034;2023-11-22T12:35:32;102927.34;;;5.16
55038;BMP280;40937;53.594;10.034;2023-11-22T12:38:01;102920.72;;;5.11
55038;BMP280;40937;53.594;10.034;2023-11-22T12:40:29;102906.69;;;5.12
55038;BMP280;40937;53.594;10.034;2023-11-22T12:42:59;102900.47;;;5.13
55038;BMP280;40937;53.594;10.034;2023-11-22T12:45:28;102899.34;;;5.26
55038;BMP280;40937;53.594;10.034;2023-11-22T12:47:56;102884.47;;;5.17
55038;BMP280;40937;53.594;10.034;2023-11-22T12:50:33;102885.03;;;5.20
55038;BMP280;40937;53.594;10.034;2023-11-22T12:53:10;102894.78;;;5.18
55038;BMP280;40937;53.594;10.034;2023-11-22T12:55:41;102888.88;;;5.16
55038;BMP280;40937;53.594;10.034;2023-11-22T12:58:09;102894.94;;;5.17
55038;BMP280;40937;53.594;10.034;2023-11-22T13:00:36;102892.63;;;5.13
55038;BMP280;40937;53.594;10.034;2023-11-22T13:03:05;102894.28;;;5.14
55038;BMP280;40937;53.594;10.034;2023-11-22T13:05:34;102890.00;;;5.13
55038;BMP280;40937;53.594;10.034;2023-11-22T13:08:01;102892.31;;;5.17
55038;BMP280;40937;53.594;10.034;2023-11-22T13:10:30;102884.75;;;5.13
55038;BMP280;40937;53.594;10.034;2023-11-22T13:12:57;102890.72;;;5.16
55038;BMP280;40937;53.594;10.034;2023-11-22T13:15:25;102888.75;;;5.18
55038;BMP280;40937;53.594;10.034;2023-11-22T13:17:53;102885.16;;;5.19
55038;BMP280;40937;53.594;10.034;2023-11-22T13:20:22;102882.16;;;5.13
55038;BMP280;40937;53.594;10.034;2023-11-22T13:22:53;102872.81;;;5.11
55038;BMP280;40937;53.594;10.034;2023-11-22T13:25:20;102881.47;;;5.11
55038;BMP280;40937;53.594;10.034;2023-11-22T13:27:50;102877.47;;;5.07
55038;BMP280;40937;53.594;10.034;2023-11-22T13:30:19;102881.06;;;5.06
55038;BMP280;40937;53.594;10.034;2023-11-22T13:32:48;102897.56;;;5.07
55038;BMP280;40937;53.594;10.034;2023-11-22T13:35:16;102898.38;;;5.07
55038;BMP280;40937;53.594;10.034;2023-11-22T13:37:44;102894.53;;;5.11
55038;BMP280;40937;53.594;10.034;2023-11-22T13:40:14;102905.84;;;5.12
55038;BMP280;40937;53.594;10.034;2023-11-22T13:42:42;102908.72;;;5.09
55038;BMP280;40937;53.594;10.034;2023-11-22T13:45:12;102921.66;;;5.10
55038;BMP280;40937;53.594;10.034;2023-11-22T13:47:42;102921.94;;;5.07
55038;BMP280;40937;53.594;10.034;2023-11-22T13:50:11;102917.16;;;5.12
55038;BMP280;40937;53.594;10.034;2023-11-22T13:52:40;102921.53;;;5.12
55038;BMP280;40937;53.594;10.034;2023-11-22T13:55:08;102913.53;;;5.04
55038;BMP280;40937;53.594;10.034;2023-11-22T13:57:38;102905.56;;;5.05
55038;BMP280;40937;53.594;10.034;2023-11-22T14:00:07;102892.34;;;5.07
55038;BMP280;40937;53.594;10.034;2023-11-22T14:02:38;102890.81;;;5.04